Harbour Grace, Canada
Current Conditions -  °F | °C
As of 8:00 AM on Wednesday 26 Nov 2014 (Local Time) from CYYT Reporting Station
Broken Clouds Broken Clouds  
Wind Chill: 33°   Ceiling: 18000
Heat Index: 43°   Visibility: 15mi
Dew Point: 37°   Wind: 28mph
Humidity: 81%   Direction: 260°W
Pressure: 29.79"   Gusts: 38mph
Location:  47.68°N, 53.25°W
Report Text: CYYT 261100Z 26024G33KT 15SM FEW030 BKN180 06/03 A2979 RMK SC2AC4 SLP093
Loading
Personal Weather Stations






























Interactive Weather Map New forecast layout! Learn more

10-Day Weather Forecast

Advertisements
Track Severe Weather on mobile